Date,TemperatureHighF,TemperatureAvgF,TemperatureLowF,DewpointHighF,DewpointAvgF,DewpointLowF,HumidityHigh,HumidityAvg,HumidityLow,PressureMaxIn,PressureMinIn,WindSpeedMaxMPH,WindSpeedAvgMPH,GustSpeedMaxMPH,PrecipitationSumIn
2013-1-1,51,40,33,45,37,33,98,88,68,30.18,30.11,5,2,0,0.00
2013-1-2,54,43,34,43,37,30,93,79,61,30.16,30.06,5,2,0,0.00
2013-1-3,54,42,34,43,38,32,96,84,64,30.17,30.08,5,2,0,0.00
2013-1-4,55,45,36,46,40,33,98,83,66,30.21,30.11,4,1,0,0.00
2013-1-5,53,44,39,47,42,36,98,91,69,30.19,30.00,7,1,0,0.00
2013-1-6,49,42,40,48,42,38,98,98,91,30.09,29.99,4,1,0,0.34
2013-1-7,48,41,36,48,41,36,98,98,98,30.17,30.03,8,2,0,0.00
2013-1-8,53,43,35,48,42,35,98,95,82,30.16,30.06,4,2,0,0.00
2013-1-9,50,44,37,50,44,37,98,98,96,30.10,29.82,9,2,0,0.23
2013-1-10,46,38,32,44,36,31,98,95,86,30.04,29.92,10,2,0,0.00
2013-1-11,45,36,29,42,34,29,98,92,71,30.12,30.03,4,2,0,0.00
2013-1-12,43,34,28,37,29,24,98,80,63,30.12,30.03,5,2,0,0.00
2013-1-13,43,34,26,35,28,21,96,80,58,30.14,30.04,8,2,0,0.00
2013-1-14,47,36,28,36,27,19,83,69,53,30.30,30.07,5,2,0,0.00
2013-1-15,48,38,30,43,34,27,94,85,76,30.40,30.30,5,2,0,0.00
2013-1-16,56,45,36,44,37,33,93,77,55,30.35,30.20,5,1,0,0.00
2013-1-17,61,49,39,47,39,31,77,67,56,30.20,30.10,4,1,0,0.00
2013-1-18,65,52,41,47,38,29,81,61,41,30.17,30.08,4,2,0,0.00
2013-1-19,64,51,41,46,39,31,76,64,48,30.19,30.10,5,2,0,0.00
2013-1-20,60,50,42,46,39,29,88,66,47,30.17,30.06,4,2,0,0.00
2013-1-21,65,51,43,48,40,30,82,66,47,30.12,30.04,4,2,0,0.00
2013-1-22,69,53,43,49,41,32,86,63,40,30.09,29.96,5,2,0,0.00
2013-1-23,64,54,48,50,42,32,98,67,43,30.02,29.91,7,2,0,0.02
2013-1-24,59,54,51,56,52,47,98,92,80,30.12,29.98,4,1,0,0.13
2013-1-25,63,55,50,62,54,46,98,98,78,30.12,29.96,7,1,0,0.17
2013-1-26,54,48,40,53,44,27,98,87,40,29.97,29.85,7,3,0,0.00
2013-1-27,50,42,35,46,40,35,98,94,81,30.04,29.92,6,2,0,0.02
2013-1-28,52,42,32,46,38,29,98,83,66,30.17,30.02,8,2,0,0.00
2013-1-29,54,45,38,47,40,35,94,84,70,30.23,30.15,9,2,0,0.00
2013-1-30,59,49,40,52,45,39,98,87,76,30.27,30.19,5,2,0,0.00
2013-1-31,64,52,42,61,49,41,98,91,78,30.23,30.12,5,2,0,0.00
2013-2-1,65,54,44,64,51,39,98,89,80,30.15,30.06,5,2,0,0.00
2013-2-2,65,54,47,58,49,43,96,85,74,30.21,30.12,4,1,0,0.00
2013-2-3,61,50,41,58,48,40,98,92,78,30.14,30.04,5,2,0,0.00
2013-2-4,62,52,43,61,51,42,98,98,92,30.10,29.97,5,2,0,0.00
2013-2-5,53,46,38,51,45,38,98,96,81,30.03,29.94,5,2,0,0.00
2013-2-6,56,46,37,48,41,35,98,84,61,30.07,30.00,6,3,0,0.00
2013-2-7,52,43,37,47,41,36,98,93,83,30.08,29.88,7,3,0,0.02
2013-2-8,53,42,34,42,36,27,98,80,56,29.88,29.80,7,2,0,0.00
2013-2-9,52,41,32,42,35,26,96,78,62,30.00,29.84,6,2,0,0.00
2013-2-10,56,45,34,49,39,33,98,83,56,30.02,29.91,6,2,0,0.00
2013-2-11,57,47,36,45,38,28,90,72,54,30.16,29.96,7,2,0,0.00
2013-2-12,59,47,36,47,41,35,97,79,59,30.29,30.15,6,2,0,0.00
2013-2-13,60,49,39,48,42,37,94,80,62,30.25,30.13,6,2,0,0.00
2013-2-14,65,52,42,54,47,40,97,83,66,30.17,30.10,8,2,0,0.00
2013-2-15,68,56,47,54,47,38,97,73,52,30.22,30.16,4,2,0,0.00
2013-2-16,68,56,47,51,44,33,81,64,46,30.20,29.95,5,2,0,0.00
2013-2-17,63,53,43,51,44,35,92,72,55,29.95,29.86,8,2,0,0.00
2013-2-18,59,48,41,51,45,40,98,89,74,29.92,29.81,8,3,0,0.00
2013-2-19,43,38,32,42,37,32,98,97,92,29.83,29.62,9,3,0,0.68
2013-2-20,56,42,29,45,36,28,98,79,53,29.93,29.69,7,2,0,0.01
2013-2-21,57,45,36,44,38,32,98,78,53,30.06,29.93,10,3,0,0.00
2013-2-22,59,48,36,46,40,34,90,75,58,30.15,30.05,6,3,0,0.00
2013-2-23,56,48,41,46,37,23,98,71,42,30.12,30.03,10,3,0,0.00
2013-2-24,60,48,36,36,30,23,64,52,38,30.16,30.06,5,2,0,0.00
2013-2-25,60,50,40,43,37,32,78,60,45,30.19,30.08,6,3,0,0.00
2013-2-26,64,52,37,38,32,24,79,50,32,30.12,30.02,9,3,0,0.00
2013-2-27,66,54,42,45,35,22,65,49,35,30.29,30.11,5,2,0,0.00
2013-2-28,68,56,45,46,40,32,75,56,37,30.36,30.28,7,2,0,0.00
2013-3-1,70,58,47,53,47,42,83,68,52,30.35,30.19,6,2,0,0.00
2013-3-2,69,60,53,52,49,43,84,66,53,30.19,29.99,4,2,0,0.00
2013-3-3,61,55,49,55,51,48,98,85,75,30.01,29.93,7,2,0,0.00
2013-3-4,64,52,42,56,50,41,98,91,74,30.04,29.94,6,2,0,0.00
2013-3-5,59,50,42,47,44,37,98,81,50,29.95,29.76,8,3,0,0.00
2013-3-6,52,45,41,47,43,41,98,92,75,29.97,29.77,16,3,0,0.69
2013-3-7,53,46,38,46,43,37,98,89,72,29.91,29.76,6,2,0,0.00
2013-3-8,60,50,38,48,44,37,98,82,57,29.92,29.70,7,3,0,0.00
2013-3-9,66,51,38,53,43,35,98,76,48,30.20,29.94,9,3,0,0.00
2013-3-10,63,52,42,52,45,32,98,78,56,30.27,30.18,5,2,0,0.00
2013-3-11,68,56,44,52,47,40,98,75,55,30.19,30.03,6,2,0,0.00
2013-3-12,73,60,49,57,51,46,94,74,55,30.09,30.00,5,2,0,0.00
2013-3-13,77,64,54,58,54,48,97,71,49,30.10,30.01,5,2,0,0.00
2013-3-14,78,65,57,58,52,44,91,65,48,30.08,30.00,5,2,0,0.00
2013-3-15,74,62,54,57,51,44,82,67,54,30.03,29.94,5,2,0,0.00
2013-3-16,72,60,50,57,48,41,83,64,43,29.99,29.92,7,2,0,0.00
2013-3-17,68,56,46,49,44,38,76,64,48,30.04,29.93,5,2,0,0.00
2013-3-18,66,57,46,48,44,36,81,62,44,30.01,29.94,6,2,0,0.00
2013-3-19,68,58,49,53,48,44,98,72,50,30.06,29.97,5,2,0,0.22
2013-3-20,58,53,50,57,52,50,98,98,96,30.04,30.00,9,3,0,0.73
2013-3-21,62,54,47,55,44,37,98,70,51,30.00,29.91,7,2,0,0.01
2013-3-22,62,50,38,42,39,35,98,69,45,29.97,29.90,8,3,0,0.00
2013-3-23,65,51,38,47,39,33,89,66,35,30.03,29.95,5,2,0,0.00
2013-3-24,70,57,45,51,43,37,76,61,43,30.00,29.88,6,2,0,0.00
2013-3-25,69,57,49,55,49,44,88,76,57,29.91,29.82,6,2,0,0.00
2013-3-26,68,55,43,56,49,41,98,81,58,29.90,29.83,8,3,0,0.00
2013-3-27,67,57,48,60,53,46,98,87,75,29.94,29.84,9,2,0,0.00
2013-3-28,67,58,52,58,54,52,98,87,64,30.02,29.93,5,2,0,0.00
2013-3-29,76,63,52,58,52,46,88,69,47,30.02,29.94,5,2,0,0.00
2013-3-30,72,63,55,60,55,50,98,76,63,29.97,29.87,5,2,0,0.00
2013-3-31,66,56,51,58,45,-12,98,73,6,30.02,29.90,6,2,0,1.09
2013-4-1,65,56,48,56,52,48,98,86,66,30.07,29.97,6,2,0,0.01
2013-4-2,68,57,47,60,52,46,98,86,65,30.08,29.98,6,2,0,0.00
2013-4-3,72,61,51,72,60,51,98,98,98,30.05,29.90,5,2,0,0.00
2013-4-4,60,55,49,60,54,48,98,98,98,30.03,29.90,8,2,0,0.56
2013-4-5,63,55,50,62,55,50,98,98,98,30.08,30.02,5,2,0,0.00
2013-4-6,62,54,48,61,54,48,98,98,98,30.11,30.02,7,3,0,0.00
2013-4-7,64,53,46,64,53,46,98,98,98,30.06,29.70,7,4,0,0.01
2013-4-8,66,52,44,65,52,43,98,98,98,29.90,29.63,10,3,0,0.36
2013-4-9,68,58,47,68,58,46,98,98,98,30.01,29.90,9,4,0,0.00
2013-4-10,79,66,51,78,66,51,98,98,98,30.11,29.89,8,3,0,0.00
2013-4-11,73,62,52,72,61,52,98,98,98,29.91,29.72,5,2,0,0.00
2013-4-12,74,63,50,74,62,50,98,98,98,29.81,29.72,5,2,0,0.00
2013-4-13,73,62,50,72,61,50,98,98,98,29.78,29.70,9,2,0,0.00
2013-4-14,68,57,47,68,57,47,98,98,98,29.79,29.66,6,2,0,0.00
2013-4-15,57,48,40,56,47,40,98,97,83,29.79,29.70,11,3,0,0.27
2013-4-16,62,49,37,62,48,36,98,98,98,30.06,29.79,8,3,0,0.01
2013-4-17,64,53,40,64,53,40,98,98,98,30.15,30.06,9,3,0,0.00
2013-4-18,71,59,45,70,59,44,98,98,98,30.20,30.10,7,2,0,0.00
2013-4-19,78,64,51,77,64,50,98,98,98,30.17,29.99,4,1,0,0.00
2013-4-20,77,66,53,77,65,52,98,98,98,30.00,29.89,7,2,0,0.00
2013-4-21,80,68,57,80,68,57,98,98,98,29.96,29.86,5,2,0,0.00
2013-4-22,83,70,59,82,69,59,98,98,98,29.91,29.76,6,2,0,0.00
2013-4-23,78,68,56,78,67,56,98,98,98,29.86,29.76,7,2,0,0.00
2013-4-24,86,69,52,85,68,52,98,98,98,29.81,29.67,7,3,0,0.00
2013-4-25,71,58,47,70,57,46,98,98,98,30.01,29.81,8,4,0,0.00
2013-4-26,76,62,46,76,61,46,98,98,98,30.13,30.01,6,2,0,0.00
2013-4-27,82,69,58,81,69,57,98,98,98,30.13,29.97,4,1,0,0.00
2013-4-28,84,72,62,83,72,61,98,98,98,29.99,29.80,4,2,0,0.00
2013-4-29,85,73,62,84,73,62,98,98,98,29.83,29.67,5,2,0,0.00
2013-4-30,78,68,56,78,67,56,98,98,98,29.77,29.67,7,2,0,0.00
2013-5-1,83,71,57,82,70,56,98,98,98,30.03,29.77,5,2,0,0.00
2013-5-2,86,75,64,85,74,63,98,98,98,30.11,30.00,5,2,0,0.00
2013-5-3,85,74,63,85,74,62,98,98,98,30.02,29.72,6,2,0,0.00
2013-5-4,84,74,63,84,74,62,98,98,98,29.72,29.43,8,2,0,0.00
2013-5-5,72,61,50,71,60,50,98,98,98,29.72,29.50,8,2,0,0.00
2013-5-6,71,60,53,70,59,52,98,98,98,29.87,29.72,5,2,0,0.28
2013-5-7,68,59,53,67,58,52,98,98,98,29.95,29.86,7,2,0,0.48
2013-5-8,71,61,54,71,61,54,98,98,98,30.03,29.93,5,2,0,0.03
2013-5-9,76,63,50,76,62,49,98,98,98,30.04,29.95,6,2,0,0.00
2013-5-10,83,68,53,82,67,53,98,98,98,30.08,29.98,4,1,0,0.00
2013-5-11,90,76,64,90,76,63,98,98,98,30.04,29.96,4,1,0,0.00
2013-5-12,93,78,67,92,77,66,98,98,98,30.05,29.92,7,2,0,0.00
2013-5-13,90,76,62,90,75,62,98,98,98,29.99,29.84,9,2,0,0.00
2013-5-14,86,73,60,86,72,59,98,98,98,29.86,29.78,6,2,0,0.00
2013-5-15,76,64,53,75,64,53,98,98,98,29.93,29.87,16,3,0,0.00
2013-5-16,69,59,52,68,58,52,98,98,98,29.93,29.83,9,4,0,0.01
2013-5-17,72,59,47,71,58,46,98,98,98,29.96,29.85,9,3,0,0.00
2013-5-18,76,63,47,76,62,47,98,98,98,30.03,29.95,5,2,0,0.00
2013-5-19,80,68,56,79,68,55,98,98,98,30.01,29.87,10,2,0,0.00
2013-5-20,86,74,62,86,73,61,98,98,98,29.93,29.81,5,2,0,0.00
2013-5-21,78,66,54,78,66,53,98,98,98,29.86,29.77,9,3,0,0.00
2013-5-22,67,55,41,66,54,41,98,98,98,29.88,29.77,6,2,0,0.00
2013-5-23,71,57,43,70,57,42,98,98,98,29.88,29.78,10,3,0,0.00
2013-5-24,77,62,50,76,61,49,98,98,98,29.91,29.82,5,2,0,0.00
2013-5-25,74,59,48,73,58,47,98,98,98,29.92,29.85,5,2,0,0.00
2013-5-26,74,60,48,73,59,48,98,98,98,30.00,29.91,9,4,0,0.00
2013-5-27,62,56,49,62,56,48,98,98,98,30.02,29.90,8,3,0,0.05
2013-5-28,74,62,54,74,62,53,98,98,98,29.91,29.80,5,2,0,0.04
2013-5-29,77,65,53,76,64,53,98,98,98,29.86,29.77,9,3,0,0.04
2013-5-30,81,67,55,80,67,54,98,98,98,29.88,29.81,3,1,0,0.00
2013-5-31,87,73,58,86,72,57,98,98,98,29.90,29.81,5,2,0,0.00
2013-6-1,91,79,65,91,78,64,98,98,98,29.81,29.67,3,1,0,0.00
2013-6-2,93,79,65,93,79,64,98,98,98,29.67,29.53,5,2,0,0.00
2013-6-3,90,75,63,90,74,62,98,98,98,29.69,29.57,7,2,0,0.00
2013-6-4,83,68,54,82,67,54,98,98,98,29.82,29.68,9,4,0,0.00
2013-6-5,86,68,52,85,68,51,98,98,98,29.89,29.77,9,3,0,0.00
2013-6-6,89,74,57,89,74,57,98,97,86,29.84,29.72,9,2,0,0.00
2013-6-7,103,83,68,100,82,67,98,98,98,29.77,29.63,5,2,0,0.00
2013-6-8,106,91,78,100,89,77,98,98,98,29.67,29.56,5,2,0,0.00
2013-6-9,80,69,60,79,68,59,98,98,98,29.78,29.64,11,3,0,0.00
2013-6-10,73,62,52,73,61,52,98,98,94,29.87,29.74,6,2,0,0.00
2013-6-11,84,69,54,83,68,53,98,98,98,29.90,29.80,5,1,0,0.00
2013-6-12,84,71,60,83,71,59,98,98,98,29.88,29.81,7,2,0,0.00
2013-6-13,81,68,52,80,67,52,98,98,98,29.99,29.88,6,2,0,0.00
2013-6-14,85,72,56,84,71,56,98,98,98,29.90,29.73,3,1,0,0.00
2013-6-15,86,74,61,86,73,61,98,98,98,29.85,29.74,6,2,0,0.00
2013-6-16,87,69,59,87,69,58,98,98,98,29.97,29.85,5,3,0,0.00
2013-6-17,84,71,59,83,70,58,98,98,98,29.97,29.88,9,3,0,0.00
2013-6-18,76,62,52,75,62,52,98,98,98,29.93,29.82,9,4,0,0.00
2013-6-19,75,63,50,75,62,49,98,98,98,29.96,29.89,8,3,0,0.00
2013-6-20,80,68,55,80,67,55,98,98,98,29.89,29.82,4,2,0,0.00
2013-6-21,85,71,58,84,71,58,98,98,98,29.87,29.80,4,2,0,0.00
2013-6-22,94,76,62,93,75,60,98,97,70,29.83,29.72,4,2,0,0.00
2013-6-23,74,66,57,74,63,56,98,93,68,29.78,29.71,10,4,0,0.00
2013-6-24,65,62,59,65,61,59,98,98,98,29.83,29.75,5,1,0,0.37
2013-6-25,72,65,59,71,64,58,98,98,97,29.93,29.82,9,2,0,0.54
2013-6-26,88,74,61,84,70,60,98,89,53,29.97,29.90,4,1,0,0.00
2013-6-27,96,79,64,76,70,64,98,76,49,30.00,29.92,4,2,0,0.00
2013-6-28,103,86,71,78,70,56,98,64,23,29.95,29.81,5,2,0,0.00
2013-6-29,105,90,74,72,64,58,65,45,25,29.85,29.71,5,2,0,0.00
2013-6-30,107,89,78,68,61,-100,62,43,20,29.76,29.66,5,-9,0,0.20
2013-7-1,104,90,76,68,60,53,54,39,22,29.76,29.70,4,2,0,0.00
2013-7-2,104,90,78,66,61,52,56,40,26,29.82,29.72,8,3,0,0.00
2013-7-3,104,87,74,66,61,52,59,42,26,29.82,29.66,4,2,0,0.00
2013-7-4,106,90,77,69,65,59,70,45,22,29.67,29.55,6,2,0,0.00
2013-7-5,91,79,66,58,52,44,58,40,29,29.66,29.58,12,4,0,0.00
2013-7-6,91,72,58,58,53,47,79,53,28,29.70,29.62,4,1,0,0.00
2013-7-7,97,78,61,56,48,29,65,38,17,29.77,29.66,4,2,0,0.00
2013-7-8,95,76,64,50,42,30,50,31,17,29.89,29.77,5,2,0,0.00
2013-7-9,102,85,67,54,46,35,49,29,15,29.96,29.84,4,2,0,0.00
2013-7-10,98,84,71,53,46,38,39,27,17,29.87,29.76,5,3,0,0.00
2013-7-11,94,76,59,48,43,35,55,32,16,29.84,29.75,5,3,0,0.00
2013-7-12,92,74,58,53,49,43,68,43,19,29.84,29.76,5,2,0,0.00
2013-7-13,97,80,64,51,45,39,54,32,15,29.87,29.80,6,2,0,0.00
2013-7-14,99,81,67,52,48,43,47,33,18,29.87,29.77,5,2,0,0.00
2013-7-15,92,74,62,53,46,37,56,38,20,29.81,29.70,6,3,0,0.00
2013-7-16,85,67,50,53,51,44,99,61,33,29.94,29.76,5,3,0,0.00
2013-7-17,100,73,54,56,52,40,92,55,21,30.00,29.91,5,2,0,0.00
2013-7-18,104,82,66,55,48,37,54,34,14,29.96,29.82,5,2,0,0.00
2013-7-19,103,84,70,55,50,43,49,33,16,29.85,29.69,4,2,0,0.00
2013-7-20,101,84,70,58,54,50,53,37,20,29.74,29.61,6,2,0,0.00
2013-7-21,99,82,70,58,52,45,54,37,23,29.80,29.65,7,2,0,0.00
2013-7-22,92,78,65,53,48,39,63,38,19,29.89,29.79,6,2,0,0.00
2013-7-23,94,77,67,51,45,38,46,33,19,29.92,29.78,8,3,0,0.00
2013-7-24,105,84,66,60,51,37,48,33,23,29.90,29.78,5,2,0,0.00
2013-7-25,107,86,73,63,58,51,56,40,23,29.90,29.80,5,2,0,0.00
2013-7-26,104,82,68,60,53,48,50,38,23,29.98,29.86,10,4,0,0.00
2013-7-27,102,81,65,60,52,43,60,38,25,29.90,29.74,8,3,0,0.00
2013-7-28,99,78,62,59,52,43,67,43,25,29.76,29.67,5,2,0,0.00
2013-7-29,93,71,54,54,50,42,83,51,24,29.91,29.72,4,2,0,0.00
2013-7-30,100,75,56,56,51,44,83,49,20,30.01,29.90,5,2,0,0.00
2013-7-31,97,75,58,53,49,40,72,45,15,29.98,29.86,7,4,0,0.00
2013-8-1,94,73,56,53,46,42,68,43,19,29.96,29.85,7,3,0,0.00
2013-8-2,99,77,58,51,45,36,62,34,18,29.88,29.78,5,2,0,0.00
2013-8-3,101,78,61,53,48,42,52,37,17,29.88,29.79,4,2,0,0.00
2013-8-4,99,77,60,54,49,44,65,41,19,29.90,29.81,6,2,0,0.00
2013-8-5,101,75,58,54,48,42,73,43,16,29.92,29.81,6,3,0,0.00
2013-8-6,96,72,59,53,50,45,79,48,21,29.94,29.85,5,3,0,0.00
2013-8-7,86,66,55,57,54,50,99,71,35,30.01,29.93,8,3,0,0.00
2013-8-8,92,68,53,56,53,46,97,64,25,29.95,29.81,6,3,0,0.00
2013-8-9,90,70,52,55,52,48,98,58,27,29.88,29.81,6,3,0,0.00
2013-8-10,95,71,54,56,53,50,93,58,24,29.94,29.87,7,2,0,0.00
2013-8-11,98,76,59,56,52,47,74,47,22,29.91,29.81,5,2,0,0.00
2013-8-12,99,77,61,53,47,41,62,39,17,29.90,29.84,6,2,0,0.00
2013-8-13,103,81,66,53,47,43,48,32,17,29.91,29.81,4,2,0,0.00
2013-8-14,104,81,67,53,47,42,49,33,17,29.88,29.78,5,2,0,0.00
2013-8-15,103,80,65,59,52,46,61,42,19,29.88,29.80,6,3,0,0.00
2013-8-16,105,82,67,58,52,43,67,38,15,29.90,29.82,6,3,0,0.00
2013-8-17,105,82,68,58,51,43,54,37,15,29.89,29.74,4,2,0,0.00
2013-8-18,105,85,68,60,53,44,53,36,17,29.81,29.71,4,1,0,0.00
2013-8-19,104,88,77,61,57,52,51,36,21,29.83,29.70,8,2,0,0.00
2013-8-20,104,83,68,60,56,51,59,42,23,29.79,29.68,8,3,0,0.00
2013-8-21,96,77,64,55,49,44,60,40,20,29.83,29.75,8,3,0,0.00
2013-8-22,95,75,61,55,51,48,64,45,24,29.85,29.75,6,3,0,0.00
2013-8-23,97,73,55,55,51,47,78,50,23,29.83,29.69,8,3,0,0.00
2013-8-24,92,74,59,56,52,48,73,49,25,29.80,29.72,10,4,0,0.00
2013-8-25,93,72,57,60,57,54,98,63,28,29.87,29.77,8,3,0,0.00
2013-8-26,95,73,57,58,53,45,93,56,26,29.90,29.79,5,2,0,0.00
2013-8-27,99,77,63,56,51,47,61,42,22,29.83,29.70,5,2,0,0.00
2013-8-28,99,78,61,57,52,43,72,44,20,29.85,29.76,6,3,0,0.00
2013-8-29,100,78,63,57,54,43,75,48,22,29.96,29.84,5,2,0,0.00
2013-8-30,104,81,67,57,50,45,62,37,17,29.96,29.82,5,2,0,0.00
2013-8-31,102,82,69,54,48,43,45,33,18,29.88,29.79,5,2,0,0.00
2013-9-1,96,77,66,56,48,41,50,37,23,29.84,29.77,6,3,0,0.00
2013-9-2,74,69,63,66,59,50,90,73,46,29.87,29.79,6,2,0,0.09
2013-9-3,92,72,61,60,55,47,89,59,29,29.90,29.82,8,3,0,0.01
2013-9-4,95,72,59,56,52,46,82,53,25,29.94,29.83,5,3,0,0.00
2013-9-5,92,72,58,55,51,43,83,52,23,29.92,29.84,7,3,0,0.00
2013-9-6,101,77,61,51,45,40,63,36,16,29.91,29.76,4,2,0,0.00
2013-9-7,104,83,68,52,47,44,47,31,16,29.83,29.73,4,2,0,0.00
2013-9-8,105,85,71,54,46,41,40,28,14,29.78,29.67,6,3,0,0.00
2013-9-9,107,86,73,53,47,42,37,27,17,29.72,29.58,5,2,0,0.00
2013-9-10,96,78,63,57,52,46,76,42,26,29.80,29.62,6,3,0,0.00
2013-9-11,89,68,56,58,56,54,97,70,35,29.90,29.81,7,3,0,0.00
2013-9-12,95,72,56,60,57,54,99,65,30,29.90,29.77,4,2,0,0.00
2013-9-13,97,77,61,60,57,54,78,54,30,29.82,29.63,4,2,0,0.00
2013-9-14,96,76,62,58,55,52,71,52,28,29.71,29.61,6,2,0,0.00
2013-9-15,93,71,56,55,50,41,73,51,18,29.77,29.63,8,4,0,0.00
2013-9-16,93,72,58,57,52,48,82,54,25,29.81,29.67,6,3,0,0.00
2013-9-17,85,67,54,53,51,45,86,58,32,29.81,29.71,7,3,0,0.00
2013-9-18,89,70,55,49,44,36,64,42,24,29.82,29.72,6,2,0,0.00
2013-9-19,98,75,59,45,42,40,52,34,16,29.79,29.67,4,1,0,0.00
2013-9-20,86,70,59,57,47,35,87,46,26,29.77,29.67,7,3,0,0.00
2013-9-21,65,58,51,58,54,50,99,90,64,29.80,29.72,5,2,0,0.81
2013-9-22,78,60,48,55,50,47,99,72,41,29.90,29.80,6,2,0,0.00
2013-9-23,87,67,54,55,51,46,80,59,33,29.93,29.85,4,2,0,0.00
2013-9-24,80,66,55,56,52,45,80,62,34,29.89,29.76,9,4,0,0.00
2013-9-25,76,60,50,51,43,33,92,60,28,29.82,29.71,5,2,0,0.00
2013-9-26,77,60,47,41,37,32,66,44,26,29.88,29.70,9,4,0,0.00
2013-9-27,84,64,51,42,35,32,50,35,18,30.01,29.88,5,2,0,0.00
2013-9-28,88,68,55,42,38,35,51,35,18,30.03,29.92,5,2,0,0.00
2013-9-29,78,65,56,56,51,37,88,62,40,30.03,29.96,7,3,0,0.00
2013-9-30,82,65,58,59,57,56,91,76,43,30.01,29.87,5,2,0,0.00
2013-10-1,82,65,53,57,50,42,96,63,33,29.91,29.83,6,2,0,0.00
2013-10-2,84,65,54,52,46,36,80,53,24,29.91,29.82,4,1,0,0.00
2013-10-3,77,61,46,42,34,20,75,42,17,29.93,29.81,9,4,0,0.00
2013-10-4,86,68,56,34,28,21,30,22,12,30.03,29.89,5,3,0,0.00
2013-10-5,89,70,54,38,27,17,28,21,15,30.15,30.03,4,2,0,0.00
2013-10-6,90,71,58,40,32,28,34,25,12,30.07,29.94,5,2,0,0.00
2013-10-7,91,71,60,38,32,29,33,24,12,29.94,29.79,5,2,0,0.00
2013-10-8,77,64,57,40,34,27,42,32,24,29.80,29.58,5,2,0,0.00
2013-10-9,77,60,50,44,40,34,78,49,28,29.64,29.48,5,2,0,0.00
2013-10-10,75,60,50,46,42,40,73,54,34,29.91,29.65,6,2,0,0.00
2013-10-11,81,63,52,46,42,39,65,49,29,29.98,29.88,5,2,0,0.00
2013-10-12,79,63,52,46,42,39,63,48,28,29.91,29.78,5,2,0,0.00
2013-10-13,77,61,49,46,41,38,81,51,30,29.96,29.80,5,2,0,0.00
2013-10-14,82,64,52,43,38,33,55,39,25,30.05,29.94,5,2,0,0.00
2013-10-15,84,66,54,39,36,30,51,34,19,29.97,29.88,5,2,0,0.00
2013-10-16,86,68,57,39,32,21,37,27,18,30.04,29.91,5,2,0,0.00
2013-10-17,85,68,56,41,36,33,43,32,19,30.00,29.89,6,2,0,0.00
2013-10-18,87,68,56,40,36,32,41,31,19,29.98,29.89,4,1,0,0.00
2013-10-19,90,70,60,40,37,34,40,30,17,30.02,29.94,6,2,0,0.00
2013-10-20,86,70,59,41,36,31,40,30,20,29.95,29.83,5,2,0,0.00
2013-10-21,90,70,57,44,39,35,43,34,20,29.91,29.83,5,1,0,0.00
2013-10-22,89,71,60,39,34,25,41,26,16,29.93,29.83,5,2,0,0.00
2013-10-23,88,71,60,39,33,27,35,25,16,29.86,29.78,4,2,0,0.00
2013-10-24,81,65,54,46,39,28,68,40,24,29.98,29.83,5,2,0,0.00
2013-10-25,84,64,49,46,41,35,75,47,21,30.08,29.97,4,1,0,0.00
2013-10-26,86,67,54,44,39,32,49,37,22,30.08,29.94,4,1,0,0.00
2013-10-27,77,61,50,46,39,31,85,48,26,29.94,29.49,10,4,0,0.00
2013-10-28,58,51,45,45,43,40,99,75,51,29.75,29.49,10,3,0,0.01
2013-10-29,61,53,48,46,43,41,84,70,54,29.95,29.75,5,2,0,0.00
2013-10-30,70,54,43,43,40,36,84,60,36,30.06,29.94,5,2,0,0.00
2013-10-31,74,58,47,44,41,39,76,57,33,30.11,30.01,5,2,0,0.00
2013-11-1,80,63,52,45,40,34,64,45,28,30.10,29.95,5,2,0,0.00
2013-11-2,78,63,54,46,39,31,74,43,26,29.96,29.79,4,1,0,0.00
2013-11-3,63,52,42,46,32,28,76,50,30,29.92,29.79,9,2,0,0.00
2013-11-4,69,53,41,35,29,21,72,42,23,29.96,29.78,8,3,0,0.00
2013-11-5,72,56,45,34,30,22,51,37,24,30.17,29.96,6,2,0,0.00
2013-11-6,76,61,50,38,34,32,51,39,23,30.20,30.11,6,2,0,0.00
2013-11-7,80,64,55,35,33,30,43,33,17,30.12,29.99,4,1,0,0.00
2013-11-8,80,67,54,40,36,28,50,33,19,29.99,29.88,3,1,0,0.00
2013-11-9,80,63,52,42,38,34,51,42,26,29.96,29.91,4,2,0,0.00
2013-11-10,81,63,54,40,36,30,48,37,23,30.03,29.96,5,2,0,0.00
2013-11-11,78,62,52,36,30,22,40,31,20,30.11,30.00,4,1,0,0.00
2013-11-12,73,62,57,40,34,29,46,35,27,30.19,30.06,5,2,0,0.00
2013-11-13,79,64,54,42,38,34,48,40,25,30.16,29.99,4,1,0,0.00
2013-11-14,72,60,50,45,41,37,76,50,36,30.02,29.73,6,2,0,0.00
2013-11-15,69,54,44,44,38,30,88,56,31,29.74,29.61,5,1,0,0.00
2013-11-16,65,53,46,40,37,33,68,55,39,29.83,29.65,5,2,0,0.00
2013-11-17,68,53,44,46,41,36,79,65,43,30.00,29.83,6,2,0,0.00
2013-11-18,65,53,47,45,42,40,86,69,43,30.06,29.98,4,2,0,0.00
2013-11-19,61,52,47,51,48,43,99,84,65,30.03,29.88,8,2,0,0.47
2013-11-20,54,52,50,54,51,49,99,99,99,29.88,29.76,8,3,0,0.78
2013-11-21,64,53,46,54,39,25,99,65,30,29.91,29.78,19,4,0,0.04
2013-11-22,69,57,45,44,21,14,97,29,13,29.95,29.84,9,4,0,0.00
2013-11-23,66,51,42,45,41,37,98,70,37,30.03,29.91,4,2,0,0.00
2013-11-24,68,52,42,43,39,34,80,65,40,30.17,30.03,6,2,0,0.00
2013-11-25,68,52,43,44,40,36,78,64,41,30.26,30.16,6,2,0,0.00
2013-11-26,66,54,46,45,42,38,78,66,45,30.21,29.98,4,1,0,0.00
2013-11-27,71,56,49,44,40,35,75,57,33,29.97,29.79,5,2,0,0.00
2013-11-28,77,59,51,42,38,34,60,47,25,29.99,29.80,6,3,0,0.00
2013-11-29,71,57,49,42,38,35,63,50,32,30.14,29.99,6,2,0,0.00
2013-11-30,71,56,49,43,39,34,66,53,36,30.19,30.10,5,2,0,0.00
2013-12-1,70,56,47,44,40,34,70,56,38,30.27,30.14,5,2,0,0.00
2013-12-2,69,55,49,46,42,39,88,64,38,30.15,29.81,7,3,0,0.00
2013-12-3,53,46,35,49,33,19,99,65,30,29.82,29.71,9,4,0,0.00
2013-12-4,49,37,28,25,20,17,69,52,34,29.94,29.78,6,2,0,0.00
2013-12-5,50,37,29,26,21,15,73,53,31,30.05,29.93,5,2,0,0.00
2013-12-6,47,37,31,33,26,20,99,65,38,30.09,29.80,11,4,0,0.04
2013-12-7,40,33,29,36,32,26,99,95,83,30.11,29.79,12,3,0,0.46
2013-12-8,45,32,26,30,25,20,93,75,49,30.18,30.11,7,3,0,0.02
2013-12-9,50,36,26,29,26,23,94,67,41,30.33,30.17,6,2,0,0.01
2013-12-10,56,42,33,30,27,18,79,58,24,30.32,30.11,5,2,0,0.00
2013-12-11,62,46,35,35,31,27,80,58,32,30.17,30.10,5,2,0,0.00
2013-12-12,66,50,41,33,28,21,59,44,19,30.18,30.08,6,2,0,0.00
2013-12-13,62,48,40,31,26,20,60,43,24,30.24,30.13,6,2,0,0.00
2013-12-14,64,50,40,34,31,26,61,50,28,30.33,30.24,5,2,0,0.00
2013-12-15,66,52,45,35,32,26,58,46,28,30.29,30.17,8,2,0,0.00
2013-12-16,71,56,46,40,36,28,61,48,28,30.18,30.07,6,2,0,0.00
2013-12-17,71,59,49,43,39,33,64,48,32,30.12,29.95,5,1,0,0.00
2013-12-18,70,55,45,44,37,30,89,52,34,29.95,29.62,5,2,0,0.00
2013-12-19,60,48,41,44,34,22,95,64,33,29.78,29.57,9,3,0,0.00
2013-12-20,60,45,35,33,26,19,67,47,27,29.89,29.77,6,2,0,0.00
2013-12-21,59,48,40,38,34,30,78,60,43,30.00,29.87,6,2,0,0.00
2013-12-22,63,50,41,38,36,32,74,59,38,30.22,30.01,5,1,0,0.00
2013-12-23,67,54,45,41,38,34,69,55,36,30.33,30.21,5,2,0,0.00
2013-12-24,67,54,48,41,37,31,73,54,33,30.25,30.14,4,2,0,0.00
2013-12-25,70,55,46,42,36,28,72,51,29,30.24,30.13,5,2,0,0.00
2013-12-26,73,57,50,38,30,22,51,37,22,30.20,30.11,6,2,0,0.00
2013-12-27,68,55,47,38,32,21,59,42,24,30.17,30.03,8,2,0,0.00
2013-12-28,68,54,44,33,27,19,55,36,21,30.03,29.92,6,2,0,0.00
2013-12-29,67,53,42,37,32,24,57,46,32,30.12,30.00,6,2,0,0.00
2013-12-30,70,55,47,36,30,23,47,38,20,30.18,30.11,5,2,0,0.00
2013-12-31,69,54,48,35,30,24,50,40,23,30.18,30.06,5,2,0,0.00
2014-1-1,68,54,47,35,32,27,53,43,28,30.13,30.05,4,2,0,0.00
2014-1-2,69,56,47,39,35,32,56,46,32,30.11,29.98,5,2,0,0.00